Terminal Aerodrome Forecast
Issued by NWS

Home | Current Version | Previous Version | Text Only | Print | Product List | Glossary On
Versions: 1 2 3 4 5 6 7 8 9 10 11 12 13 14 15 16 17 18 19 20 21 22 23 24 25 26 27 28 29 30 31 32 33 34
488
FTUS45 KREV 241740
TAFCXP
TAF
KCXP 241740Z 2418/2518 VRB05KT P6SM FEW060 SCT200
     FM242100 25006KT P6SM SCT060 OVC200
     FM250200 VRB03KT P6SM SCT060 BKN100
     FM251500 22005KT P6SM VCSH FEW040 BKN060=

USA.gov is the U.S. government's official web portal to all federal, state and local government web resources and services.